Nearby METAR Reports

 

K1A5 - Macon/Franklin, North Carolina, USA
Distance from station: WSW 16mi, 25km
Updated: Wed, 03-Mar-2021 2:55am EST
Overcast
Overcast
 Wind from calm
Wind: Calm
Temperature: 41°F , 5°C
Dew Point: 30°F , -1°C
Humidity: 66%
Barometer: 30.07 inHg , 1018.3 hPa
Clouds: Overcast
Visibility: 10 miles , 16 km
Cloud details: Mostly cloudy 6000 ft
Overcast 7500 ft
2021/03/03 07:55 K1A5 030755Z AUTO 00000KT 10SM BKN060 OVC075 05/M01 A3007 RMK AO2 T00481009
KAVL - Asheville, North Carolina, USA
Distance from station: ENE 36mi, 59km
Updated: Wed, 03-Mar-2021 2:54am EST
Overcast
Overcast
 Wind from calm
Wind: Calm
Temperature: 37°F , 3°C
Dew Point: 25°F , -4°C
Humidity: 60%
Barometer: 30.01 inHg , 1016.3 hPa
Clouds: Overcast
Visibility: 10 miles , 16 km
Cloud details: Mostly cloudy 7000 ft
Overcast 8500 ft
2021/03/03 07:54 KAVL 030754Z AUTO 00000KT 10SM BKN070 OVC085 03/M04 A3001 RMK AO2 SLP164 T00331039
 
KRHP - Andrews, North Carolina, USA
Distance from station: WSW 40mi, 64km
Updated: Wed, 03-Mar-2021 2:55am EST
Overcast
Overcast
 Wind from calm
Wind: Calm
Temperature: 41°F , 5°C
Dew Point: 36°F , 2°C
Humidity: 81%
Barometer: 30.03 inHg , 1016.9 hPa
Clouds: Overcast
Visibility: 10 miles , 16 km
Cloud details: Overcast 6000 ft
2021/03/03 07:55 KRHP 030755Z AUTO 00000KT 10SM OVC060 05/02 A3003 RMK AO2 T00520019
KLQK - Pickens, South Carolina, USA
Distance from station: SE 42mi, 68km
Updated: Wed, 03-Mar-2021 2:55am EST
Overcast
Overcast
 Wind from NE
Wind: NE 5 mph , 7 km/h
Temperature: 43°F , 6°C
Wind Chill: 40°F , 4°C
Dew Point: 27°F , -3°C
Humidity: 53%
Barometer: 30.05 inHg , 1017.6 hPa
Clouds: Overcast
Visibility: 10 miles , 16 km
Cloud details: Overcast 7000 ft
2021/03/03 07:55 KLQK 030755Z AUTO 05004KT 10SM OVC070 06/M03 A3005 RMK AO2 T00551027
 
KCEU - Clemson, South Carolina, USA
Distance from station: SSE 46mi, 75km
Updated: Wed, 03-Mar-2021 2:54am EST
Mostly cloudy
Mostly cloudy
 Wind from ENE
Wind: ENE 6 mph , 9 km/h
Temperature: 43°F , 6°C
Wind Chill: 39°F , 4°C
Dew Point: 25°F , -4°C
Humidity: 49%
Barometer: 30.07 inHg , 1018.3 hPa
Clouds: Mostly cloudy
Visibility: 10 miles , 16 km
Cloud details: Mostly cloudy 7000 ft
Mostly cloudy 11000 ft
2021/03/03 07:54 KCEU 030754Z AUTO 06005KT 10SM BKN070 BKN110 06/M04 A3007 RMK AO2 SLP182 T00611044
KTOC - Toccoa, Georgia, USA
Distance from station: S 49mi, 79km
Updated: Wed, 03-Mar-2021 2:55am EST
Light rain, Overcast
Light rain, Overcast
 Wind from calm
Wind: Calm
Temperature: 43°F , 6°C
Dew Point: 34°F , 1°C
Humidity: 71%
Barometer: 30.05 inHg , 1017.6 hPa
Summary: Light rain
Clouds: Overcast
Visibility: 10 miles , 16 km
Cloud details: Overcast 6500 ft
2021/03/03 07:55 KTOC 030755Z AUTO 00000KT 10SM -RA OVC065 06/01 A3005 RMK AO2 T00580006